aviador You're here:

VGHS Decoded Metar

in
Report Time2018-07-20 18:30:00
UTC Time2018-07-20 18:38:30
Flight Rules ifr IFR
Wind110° at 08 kt
W.Decomp.*RWY 14: 6.9 kt HW 4 kt LCW
W.Rank110° ranks 31
Current wind is above 110° avg. (6.3)
Visibility3500 m
Phenomena:Haze
Clouds:Few 012 Hf
Scattered 100 Hf
Expected CloudBase > 1,600 ft AGL from Temp-Dew spread
CeilingNone
Temp29°C
Dew Point25°C (79% RH)
Heat Index34.5°C
QNH0999 hPa
Raw Report
METAR VGHS 201830Z 11008KT 3500 HZ FEW012 SCT100 29/25 Q0999 NOSIG=

Extra information for VGHS:More info

Social comments